createdAt,value
2022-11-28T00:01:37.421Z,102629.19
2022-11-28T00:04:07.053Z,102628.91
2022-11-28T00:06:38.732Z,102636.91
2022-11-28T00:09:09.338Z,102599.81
2022-11-28T00:11:37.080Z,102637.53
2022-11-28T00:14:05.282Z,102638.44
2022-11-28T00:16:33.353Z,102640.16
2022-11-28T00:19:02.525Z,102630.78
2022-11-28T00:21:30.813Z,102629.22
2022-11-28T00:23:59.163Z,102634.38
2022-11-28T00:26:32.509Z,102610.19
2022-11-28T00:29:01.262Z,102636.06
2022-11-28T00:31:31.154Z,102628.81
2022-11-28T00:33:59.352Z,102630.22
2022-11-28T00:36:27.250Z,102622.97
2022-11-28T00:38:55.586Z,102623.09
2022-11-28T00:41:25.435Z,102627.81
2022-11-28T00:43:54.862Z,102624.13
2022-11-28T00:46:24.724Z,102630.75
2022-11-28T00:48:53.472Z,102619.78
2022-11-28T00:51:22.983Z,102622.63
2022-11-28T00:53:53.476Z,102617.91
2022-11-28T00:56:22.153Z,102618.66
2022-11-28T00:58:50.360Z,102621.09
2022-11-28T01:01:21.894Z,102620.28
2022-11-28T01:03:51.916Z,102598.72
2022-11-28T01:06:24.608Z,102615.91
2022-11-28T01:08:53.585Z,102619.25
2022-11-28T01:11:22.264Z,102625.13
2022-11-28T01:13:50.756Z,102615.59
2022-11-28T01:16:20.198Z,102618.13
2022-11-28T01:18:48.190Z,102622.16
2022-11-28T01:21:16.592Z,102612.56
2022-11-28T01:23:44.605Z,102566.84
2022-11-28T01:26:17.875Z,102609.31
2022-11-28T01:28:46.184Z,102568.00
2022-11-28T01:31:17.508Z,102589.34
2022-11-28T01:33:47.562Z,102587.00
2022-11-28T01:36:16.020Z,102548.09
2022-11-28T01:38:44.361Z,102550.28
2022-11-28T01:41:17.561Z,102582.50
2022-11-28T01:44:10.293Z,102582.06
2022-11-28T01:46:38.542Z,102588.13
2022-11-28T01:49:15.875Z,102585.34
2022-11-28T01:51:48.996Z,102584.34
2022-11-28T01:54:20.049Z,102582.75
2022-11-28T01:56:52.586Z,102581.59
2022-11-28T01:59:24.250Z,102583.25
2022-11-28T02:01:52.234Z,102573.41
2022-11-28T02:04:22.037Z,102569.69
2022-11-28T02:06:49.918Z,102575.03
2022-11-28T02:09:18.030Z,102580.97
2022-11-28T02:12:11.039Z,102582.16
2022-11-28T02:14:58.114Z,102583.00
2022-11-28T02:17:39.842Z,102576.56
2022-11-28T02:20:51.918Z,102574.28
2022-11-28T02:23:26.668Z,102574.81
2022-11-28T02:26:15.903Z,102530.22
2022-11-28T02:29:21.767Z,102566.66
2022-11-28T02:32:15.796Z,102576.50
2022-11-28T02:34:49.885Z,102585.25
2022-11-28T02:37:27.455Z,102522.13
2022-11-28T02:40:08.261Z,102580.75
2022-11-28T02:42:50.104Z,102578.97
2022-11-28T02:45:25.560Z,102578.09
2022-11-28T02:48:02.904Z,102576.47
2022-11-28T02:50:35.928Z,102584.13
2022-11-28T02:53:07.916Z,102524.88
2022-11-28T02:55:40.346Z,102536.78
2022-11-28T02:58:08.855Z,102571.28
2022-11-28T03:00:38.750Z,102581.69
2022-11-28T03:03:34.821Z,102586.41
2022-11-28T03:06:10.818Z,102553.63
2022-11-28T03:08:52.690Z,102590.41
2022-11-28T03:11:30.563Z,102596.53
2022-11-28T03:14:06.225Z,102591.50
2022-11-28T03:16:42.196Z,102598.25
2022-11-28T03:19:17.570Z,102594.56
2022-11-28T03:21:52.349Z,102599.56
2022-11-28T03:24:27.178Z,102590.94
2022-11-28T03:27:00.116Z,102598.59
2022-11-28T03:29:35.598Z,102600.41
2022-11-28T03:32:09.494Z,102602.69
2022-11-28T03:34:44.887Z,102597.34
2022-11-28T03:37:17.819Z,102591.09
2022-11-28T03:39:50.937Z,102603.03
2022-11-28T03:42:24.455Z,102601.34
2022-11-28T03:44:57.924Z,102602.25
2022-11-28T03:47:31.124Z,102551.28
2022-11-28T03:50:05.414Z,102600.63
2022-11-28T03:52:39.524Z,102596.41
2022-11-28T03:55:12.968Z,102609.34
2022-11-28T03:57:46.415Z,102612.22
2022-11-28T04:00:16.100Z,102604.88
2022-11-28T04:02:53.968Z,102611.94
2022-11-28T04:05:29.171Z,102608.34
2022-11-28T04:08:02.652Z,102566.75
2022-11-28T04:10:36.185Z,102606.59
2022-11-28T04:13:12.624Z,102612.03
2022-11-28T04:15:46.498Z,102613.66
2022-11-28T04:18:22.201Z,102617.78
2022-11-28T04:20:55.993Z,102615.84
2022-11-28T04:23:27.429Z,102622.03
2022-11-28T04:26:01.996Z,102623.00
2022-11-28T04:28:34.975Z,102612.66
2022-11-28T04:31:06.753Z,102619.56
2022-11-28T04:33:39.668Z,102591.16
2022-11-28T04:36:12.425Z,102582.47
2022-11-28T04:38:43.577Z,102610.38
2022-11-28T04:41:16.408Z,102608.78
2022-11-28T04:43:50.282Z,102605.41
2022-11-28T04:46:22.901Z,102605.09
2022-11-28T04:48:51.020Z,102604.78
2022-11-28T04:51:24.504Z,102606.66
2022-11-28T04:54:01.843Z,102597.75
2022-11-28T04:56:35.608Z,102607.91
2022-11-28T04:59:07.786Z,102601.44
2022-11-28T05:01:37.332Z,102599.53
2022-11-28T05:04:05.596Z,102608.09
2022-11-28T05:06:37.668Z,102607.94
2022-11-28T05:09:06.257Z,102570.97
2022-11-28T05:11:34.163Z,102605.72
2022-11-28T05:14:02.033Z,102615.84
2022-11-28T05:16:30.146Z,102609.03
2022-11-28T05:18:58.098Z,102614.09
2022-11-28T05:21:26.063Z,102616.78
2022-11-28T05:23:55.604Z,102612.63
2022-11-28T05:26:23.934Z,102618.91
2022-11-28T05:28:52.803Z,102621.16
2022-11-28T05:31:22.771Z,102615.19
2022-11-28T05:33:50.921Z,102620.09
2022-11-28T05:36:19.503Z,102624.34
2022-11-28T05:38:47.640Z,102620.06
2022-11-28T05:41:25.335Z,102617.66
2022-11-28T05:43:53.685Z,102623.78
2022-11-28T05:46:22.157Z,102621.38
2022-11-28T05:48:50.213Z,102622.66
2022-11-28T05:51:18.860Z,102625.94
2022-11-28T05:53:47.052Z,102622.66
2022-11-28T05:56:17.586Z,102626.28
2022-11-28T05:58:47.539Z,102627.06
2022-11-28T06:01:18.121Z,102623.84
2022-11-28T06:03:46.052Z,102621.72
2022-11-28T06:06:15.748Z,102601.06
2022-11-28T06:08:43.897Z,102557.19
2022-11-28T06:11:12.066Z,102623.03
2022-11-28T06:13:40.166Z,102626.28
2022-11-28T06:16:11.076Z,102631.41
2022-11-28T06:18:39.288Z,102622.97
2022-11-28T06:21:08.343Z,102621.25
2022-11-28T06:23:36.769Z,102607.78
2022-11-28T06:26:10.409Z,102628.19
2022-11-28T06:28:38.865Z,102632.50
2022-11-28T06:31:13.153Z,102624.84
2022-11-28T06:33:41.228Z,102589.81
2022-11-28T06:36:10.695Z,102594.13
2022-11-28T06:38:39.022Z,102626.81
2022-11-28T06:41:08.882Z,102618.03
2022-11-28T06:43:36.814Z,102617.00
2022-11-28T06:46:05.563Z,102631.84
2022-11-28T06:48:34.837Z,102631.63
2022-11-28T06:51:04.457Z,102631.00
2022-11-28T06:53:33.792Z,102636.75
2022-11-28T06:56:06.640Z,102587.06
2022-11-28T06:58:34.876Z,102628.44
2022-11-28T07:01:11.009Z,102632.59
2022-11-28T07:03:41.488Z,102642.91
2022-11-28T07:06:09.875Z,102641.97
2022-11-28T07:08:38.101Z,102640.44
2022-11-28T07:11:11.484Z,102641.03
2022-11-28T07:13:39.906Z,102642.06
2022-11-28T07:16:08.857Z,102636.94
2022-11-28T07:18:37.077Z,102641.22
2022-11-28T07:21:06.770Z,102636.00
2022-11-28T07:23:34.627Z,102635.84
2022-11-28T07:26:03.997Z,102632.69
2022-11-28T07:28:33.283Z,102644.63
2022-11-28T07:31:03.110Z,102635.00
2022-11-28T07:33:31.583Z,102639.88
2022-11-28T07:36:03.354Z,102629.66
2022-11-28T07:38:33.305Z,102636.50
2022-11-28T07:41:05.755Z,102640.19
2022-11-28T07:43:33.874Z,102635.84
2022-11-28T07:46:06.067Z,102639.59
2022-11-28T07:48:34.727Z,102599.78
2022-11-28T07:51:07.217Z,102652.97
2022-11-28T07:53:36.757Z,102654.66
2022-11-28T07:56:06.109Z,102654.81
2022-11-28T07:58:35.372Z,102653.16
2022-11-28T08:01:09.728Z,102653.16
2022-11-28T08:03:37.905Z,102626.00
2022-11-28T08:06:06.333Z,102658.63
2022-11-28T08:08:34.423Z,102650.28
2022-11-28T08:11:06.503Z,102657.91
2022-11-28T08:13:34.912Z,102656.13
2022-11-28T08:16:06.496Z,102656.16
2022-11-28T08:18:35.034Z,102659.44
2022-11-28T08:21:07.868Z,102659.63
2022-11-28T08:23:37.351Z,102657.84
2022-11-28T08:26:10.623Z,102667.13
2022-11-28T08:28:38.698Z,102664.66
2022-11-28T08:31:10.815Z,102666.38
2022-11-28T08:33:38.877Z,102664.75
2022-11-28T08:36:07.600Z,102662.88
2022-11-28T08:38:35.850Z,102667.22
2022-11-28T08:41:04.363Z,102669.88
2022-11-28T08:43:36.938Z,102676.03
2022-11-28T08:46:05.472Z,102640.63
2022-11-28T08:48:34.745Z,102675.94
2022-11-28T08:51:02.997Z,102671.84
2022-11-28T08:53:31.174Z,102678.66
2022-11-28T08:55:59.066Z,102675.00
2022-11-28T08:58:27.184Z,102682.41
2022-11-28T09:00:56.616Z,102677.44
2022-11-28T09:03:24.568Z,102680.78
2022-11-28T09:05:53.547Z,102679.13
2022-11-28T09:08:58.969Z,102686.06
2022-11-28T09:11:27.035Z,102684.34
2022-11-28T09:13:55.742Z,102680.97
2022-11-28T09:16:25.062Z,102668.03
2022-11-28T09:18:53.304Z,102689.38
2022-11-28T09:21:21.716Z,102680.84
2022-11-28T09:23:49.663Z,102688.50
2022-11-28T09:26:20.235Z,102691.84
2022-11-28T09:28:48.660Z,102684.94
2022-11-28T09:31:18.372Z,102692.53
2022-11-28T09:33:49.308Z,102624.63
2022-11-28T09:36:19.376Z,102683.16
2022-11-28T09:38:47.627Z,102688.44
2022-11-28T09:41:38.416Z,102700.97
2022-11-28T09:44:15.826Z,102693.16
2022-11-28T09:46:45.992Z,102695.53
2022-11-28T09:49:26.397Z,102697.16
2022-11-28T09:51:59.809Z,102695.28
2022-11-28T09:54:39.002Z,102689.28
2022-11-28T09:57:14.745Z,102697.22
2022-11-28T09:59:42.803Z,102691.75
2022-11-28T10:02:23.407Z,102697.81
2022-11-28T10:05:00.192Z,102696.19
2022-11-28T10:07:38.212Z,102696.00
2022-11-28T10:10:18.400Z,102695.25
2022-11-28T10:12:57.996Z,102693.47
2022-11-28T10:15:42.830Z,102690.31
2022-11-28T10:18:37.361Z,102690.06
2022-11-28T10:21:28.007Z,102678.81
2022-11-28T10:24:00.598Z,102694.22
2022-11-28T10:26:35.812Z,102677.09
2022-11-28T10:29:12.716Z,102690.72
2022-11-28T10:31:43.300Z,102682.31
2022-11-28T10:34:21.057Z,102684.88
2022-11-28T10:36:56.358Z,102690.13
2022-11-28T10:39:26.989Z,102689.13
2022-11-28T10:42:14.448Z,102688.25
2022-11-28T10:44:55.024Z,102682.22
2022-11-28T10:47:30.962Z,102682.50
2022-11-28T10:50:04.194Z,102680.69
2022-11-28T10:52:40.952Z,102685.81
2022-11-28T10:55:23.561Z,102684.16
2022-11-28T10:58:03.964Z,102690.31
2022-11-28T11:00:32.825Z,102635.59
2022-11-28T11:03:03.572Z,102695.63
2022-11-28T11:05:33.941Z,102615.00
2022-11-28T11:08:12.063Z,102689.22
2022-11-28T11:10:43.965Z,102696.91
2022-11-28T11:13:16.647Z,102688.44
2022-11-28T11:15:46.036Z,102689.53
2022-11-28T11:18:25.916Z,102690.53
2022-11-28T11:21:08.296Z,102635.56
2022-11-28T11:23:38.582Z,102694.00
2022-11-28T11:26:10.378Z,102680.28
2022-11-28T11:28:43.817Z,102686.28
2022-11-28T11:31:23.310Z,102677.72
2022-11-28T11:33:54.301Z,102682.72
2022-11-28T11:36:28.353Z,102683.59
2022-11-28T11:39:20.817Z,102657.66
2022-11-28T11:41:50.790Z,102687.75
2022-11-28T11:44:34.261Z,102683.53
2022-11-28T11:47:04.041Z,102683.53
2022-11-28T11:49:34.830Z,102677.50
2022-11-28T11:52:05.085Z,102693.00
2022-11-28T11:54:34.604Z,102692.81
2022-11-28T11:57:31.279Z,102635.31
2022-11-28T11:59:56.386Z,102691.16
2022-11-28T12:02:32.018Z,102690.38
2022-11-28T12:05:04.927Z,102675.88
2022-11-28T12:07:39.827Z,102683.53
2022-11-28T12:10:14.533Z,102682.47
2022-11-28T12:12:42.445Z,102683.38
2022-11-28T12:15:18.501Z,102688.44
2022-11-28T12:18:02.715Z,102685.09
2022-11-28T12:21:01.735Z,102679.03
2022-11-28T12:23:55.101Z,102685.94
2022-11-28T12:26:36.308Z,102680.69
2022-11-28T12:31:57.196Z,102690.28
2022-11-28T12:34:37.805Z,102691.88
2022-11-28T12:37:17.018Z,102693.56
2022-11-28T12:39:58.480Z,102694.41
2022-11-28T12:42:47.557Z,102697.13
2022-11-28T12:45:28.598Z,102700.69
2022-11-28T12:48:09.127Z,102696.34
2022-11-28T12:50:39.511Z,102691.09
2022-11-28T12:53:27.982Z,102683.00
2022-11-28T12:56:08.119Z,102695.91
2022-11-28T12:58:43.457Z,102695.63
2022-11-28T13:01:27.652Z,102665.34
2022-11-28T13:04:05.214Z,102696.13
2022-11-28T13:06:41.506Z,102693.41
2022-11-28T13:09:26.506Z,102691.59
2022-11-28T13:12:08.154Z,102692.25
2022-11-28T13:14:49.620Z,102695.06
2022-11-28T13:17:27.530Z,102692.50
2022-11-28T13:20:04.817Z,102697.66
2022-11-28T13:22:40.835Z,102699.91
2022-11-28T13:25:19.286Z,102693.66
2022-11-28T13:27:57.330Z,102692.81
2022-11-28T13:30:28.389Z,102658.19
2022-11-28T13:33:08.358Z,102690.94
2022-11-28T13:35:37.768Z,102690.91
2022-11-28T13:41:18.130Z,102703.13
2022-11-28T13:44:03.012Z,102698.59
2022-11-28T13:49:22.813Z,102705.97
2022-11-28T13:52:33.178Z,102703.38
2022-11-28T13:55:01.917Z,102706.69
2022-11-28T13:57:39.749Z,102696.81
2022-11-28T14:00:22.840Z,102692.78
2022-11-28T14:02:54.921Z,102702.25
2022-11-28T14:05:29.730Z,102708.31
2022-11-28T14:07:59.071Z,102683.13
2022-11-28T14:10:47.250Z,102703.28
2022-11-28T14:13:32.134Z,102701.63
2022-11-28T14:16:23.691Z,102692.97
2022-11-28T14:19:14.483Z,102656.84
2022-11-28T14:21:53.855Z,102705.06
2022-11-28T14:24:41.258Z,102646.59
2022-11-28T14:27:19.512Z,102711.03
2022-11-28T14:29:50.802Z,102669.63
2022-11-28T14:32:31.200Z,102716.00
2022-11-28T14:35:01.850Z,102716.97
2022-11-28T14:37:53.158Z,102718.56
2022-11-28T14:41:06.649Z,102722.16
2022-11-28T14:43:37.182Z,102717.97
2022-11-28T14:46:34.919Z,102720.38
2022-11-28T14:49:19.414Z,102717.53
2022-11-28T14:52:38.539Z,102715.13
2022-11-28T14:55:18.652Z,102677.34
2022-11-28T14:57:56.440Z,102716.25
2022-11-28T15:00:26.503Z,102717.81
2022-11-28T15:03:08.112Z,102722.03
2022-11-28T15:05:40.920Z,102724.53
2022-11-28T15:08:33.953Z,102724.69
2022-11-28T15:11:19.873Z,102700.53
2022-11-28T15:14:03.113Z,102732.38
2022-11-28T15:16:33.221Z,102702.19
2022-11-28T15:19:08.312Z,102703.16
2022-11-28T15:21:44.989Z,102732.38
2022-11-28T15:24:23.396Z,102719.41
2022-11-28T15:26:57.067Z,102732.19
2022-11-28T15:29:27.482Z,102729.63
2022-11-28T15:31:57.937Z,102739.94
2022-11-28T15:34:29.721Z,102694.31
2022-11-28T15:37:00.784Z,102733.94
2022-11-28T15:39:35.011Z,102733.03
2022-11-28T15:42:06.077Z,102700.31
2022-11-28T15:44:34.436Z,102688.44
2022-11-28T15:47:02.332Z,102726.88
2022-11-28T15:49:33.843Z,102737.97
2022-11-28T15:52:04.204Z,102732.19
2022-11-28T15:54:38.593Z,102724.28
2022-11-28T15:57:07.198Z,102737.19
2022-11-28T15:59:36.335Z,102733.78
2022-11-28T16:02:17.122Z,102744.06
2022-11-28T16:04:46.393Z,102734.66
2022-11-28T16:07:16.032Z,102690.84
2022-11-28T16:09:57.417Z,102722.63
2022-11-28T16:12:25.762Z,102728.72
2022-11-28T16:14:58.856Z,102726.25
2022-11-28T16:17:29.725Z,102730.41
2022-11-28T16:19:58.889Z,102731.09
2022-11-28T16:22:32.753Z,102689.94
2022-11-28T16:25:13.195Z,102725.28
2022-11-28T16:27:42.680Z,102720.00
2022-11-28T16:30:26.968Z,102720.66
2022-11-28T16:32:56.520Z,102683.84
2022-11-28T16:35:29.389Z,102724.22
2022-11-28T16:38:07.959Z,102709.41
2022-11-28T16:40:37.728Z,102716.47
2022-11-28T16:43:07.859Z,102723.31
2022-11-28T16:45:36.322Z,102725.09
2022-11-28T16:48:08.775Z,102699.94
2022-11-28T16:50:37.836Z,102729.13
2022-11-28T16:53:06.458Z,102727.50
2022-11-28T16:55:46.281Z,102690.66
2022-11-28T16:58:20.857Z,102723.41
2022-11-28T17:01:00.949Z,102719.03
2022-11-28T17:03:44.224Z,102653.59
2022-11-28T17:06:20.449Z,102720.47
2022-11-28T17:08:48.563Z,102659.50
2022-11-28T17:11:21.393Z,102722.16
2022-11-28T17:13:49.402Z,102725.47
2022-11-28T17:16:19.396Z,102714.31
2022-11-28T17:18:47.759Z,102677.19
2022-11-28T17:21:17.149Z,102725.56
2022-11-28T17:23:45.325Z,102723.78
2022-11-28T17:26:13.304Z,102694.50
2022-11-28T17:28:42.556Z,102728.19
2022-11-28T17:31:13.469Z,102728.34
2022-11-28T17:33:44.627Z,102725.50
2022-11-28T17:36:13.460Z,102698.28
2022-11-28T17:38:41.323Z,102686.75
2022-11-28T17:41:13.629Z,102727.00
2022-11-28T17:43:43.336Z,102729.13
2022-11-28T17:46:11.363Z,102729.66
2022-11-28T17:48:39.372Z,102731.25
2022-11-28T17:51:07.522Z,102726.00
2022-11-28T17:53:35.510Z,102726.75
2022-11-28T17:56:03.632Z,102733.97
2022-11-28T17:58:31.706Z,102732.00
2022-11-28T18:01:01.272Z,102735.59
2022-11-28T18:03:30.049Z,102728.78
2022-11-28T18:05:58.028Z,102731.44
2022-11-28T18:08:25.946Z,102737.28
2022-11-28T18:11:04.834Z,102698.63
2022-11-28T18:13:33.106Z,102732.28
2022-11-28T18:16:02.973Z,102733.78
2022-11-28T18:18:32.314Z,102736.03
2022-11-28T18:21:00.495Z,102733.25
2022-11-28T18:23:28.386Z,102741.28
2022-11-28T18:25:56.410Z,102734.63
2022-11-28T18:28:24.265Z,102739.53
2022-11-28T18:30:52.118Z,102729.38
2022-11-28T18:33:21.876Z,102739.84
2022-11-28T18:35:49.765Z,102733.78
2022-11-28T18:38:17.653Z,102677.13
2022-11-28T18:40:45.894Z,102737.06
2022-11-28T18:43:13.957Z,102739.09
2022-11-28T18:45:41.942Z,102735.34
2022-11-28T18:48:10.276Z,102736.09
2022-11-28T18:50:39.551Z,102730.06
2022-11-28T18:53:07.582Z,102714.53
2022-11-28T18:55:35.665Z,102732.75
2022-11-28T18:58:03.546Z,102731.03
2022-11-28T19:00:31.400Z,102731.66
2022-11-28T19:02:59.438Z,102727.69
2022-11-28T19:05:27.507Z,102732.06
2022-11-28T19:07:57.729Z,102673.13
2022-11-28T19:10:26.182Z,102732.91
2022-11-28T19:12:54.149Z,102731.38
2022-11-28T19:15:22.081Z,102733.78
2022-11-28T19:17:50.109Z,102736.13
2022-11-28T19:20:18.870Z,102742.09
2022-11-28T19:22:46.923Z,102737.06
2022-11-28T19:25:16.615Z,102738.34
2022-11-28T19:27:44.533Z,102742.16
2022-11-28T19:30:13.720Z,102738.72
2022-11-28T19:32:41.806Z,102737.50
2022-11-28T19:35:10.049Z,102742.72
2022-11-28T19:37:38.178Z,102739.19
2022-11-28T19:40:07.855Z,102742.75
2022-11-28T19:42:37.192Z,102738.88
2022-11-28T19:45:05.879Z,102742.50
2022-11-28T19:47:34.009Z,102746.00
2022-11-28T19:50:01.878Z,102748.72
2022-11-28T19:52:29.828Z,102743.47
2022-11-28T19:54:58.162Z,102743.50
2022-11-28T19:57:26.297Z,102726.19
2022-11-28T19:59:55.565Z,102734.25
2022-11-28T20:02:24.511Z,102746.88
2022-11-28T20:04:52.446Z,102738.72
2022-11-28T20:07:20.473Z,102712.22
2022-11-28T20:09:49.393Z,102740.28
2022-11-28T20:12:17.606Z,102747.44
2022-11-28T20:14:45.559Z,102742.28
2022-11-28T20:17:15.085Z,102742.09
2022-11-28T20:19:43.626Z,102737.91
2022-11-28T20:22:12.071Z,102741.47
2022-11-28T20:24:40.170Z,102740.56
2022-11-28T20:27:08.214Z,102743.78
2022-11-28T20:29:36.220Z,102746.09
2022-11-28T20:32:05.217Z,102686.38
2022-11-28T20:34:34.745Z,102750.06
2022-11-28T20:37:02.856Z,102748.16
2022-11-28T20:39:31.052Z,102750.69
2022-11-28T20:41:59.730Z,102751.78
2022-11-28T20:44:27.688Z,102746.47
2022-11-28T20:46:55.992Z,102703.56
2022-11-28T20:49:24.086Z,102750.72
2022-11-28T20:51:53.464Z,102752.63
2022-11-28T20:54:21.801Z,102763.50
2022-11-28T20:59:38.024Z,102756.75
2022-11-28T21:02:06.027Z,102759.16
2022-11-28T21:04:33.962Z,102764.09
2022-11-28T21:07:03.655Z,102758.38
2022-11-28T21:09:31.522Z,102755.59
2022-11-28T21:11:59.725Z,102733.50
2022-11-28T21:14:29.299Z,102767.84
2022-11-28T21:16:57.803Z,102756.75
2022-11-28T21:19:25.760Z,102761.13
2022-11-28T21:21:54.120Z,102767.53
2022-11-28T21:24:23.675Z,102753.50
2022-11-28T21:26:54.359Z,102752.00
2022-11-28T21:29:23.939Z,102756.25
2022-11-28T21:31:52.086Z,102760.63
2022-11-28T21:34:20.057Z,102764.09
2022-11-28T21:36:48.406Z,102757.94
2022-11-28T21:39:18.722Z,102688.53
2022-11-28T21:41:47.960Z,102765.19
2022-11-28T21:44:16.097Z,102755.81
2022-11-28T21:46:44.198Z,102753.34
2022-11-28T21:49:12.254Z,102759.09
2022-11-28T21:51:41.125Z,102694.78
2022-11-28T21:54:10.638Z,102760.25
2022-11-28T21:56:38.631Z,102759.47
2022-11-28T21:59:08.062Z,102766.31
2022-11-28T22:01:36.348Z,102754.25
2022-11-28T22:04:04.565Z,102760.41
2022-11-28T22:06:33.137Z,102762.25
2022-11-28T22:09:08.763Z,102727.72
2022-11-28T22:11:37.289Z,102753.34
2022-11-28T22:14:05.316Z,102756.28
2022-11-28T22:16:34.650Z,102753.63
2022-11-28T22:19:02.978Z,102753.78
2022-11-28T22:24:19.228Z,102761.38
2022-11-28T22:26:47.227Z,102722.63
2022-11-28T22:29:15.402Z,102751.84
2022-11-28T22:31:44.965Z,102742.50
2022-11-28T22:34:13.546Z,102755.41
2022-11-28T22:36:41.602Z,102755.22
2022-11-28T22:39:11.637Z,102751.72
2022-11-28T22:41:39.885Z,102765.47
2022-11-28T22:44:07.960Z,102757.91
2022-11-28T22:46:35.988Z,102759.56
2022-11-28T22:49:06.847Z,102761.91
2022-11-28T22:51:34.773Z,102762.81
2022-11-28T22:54:03.747Z,102761.13
2022-11-28T22:56:34.084Z,102765.06
2022-11-28T22:59:04.999Z,102771.06
2022-11-28T23:01:34.504Z,102736.66
2022-11-28T23:04:02.945Z,102772.25
2022-11-28T23:06:34.045Z,102771.25
2022-11-28T23:09:05.122Z,102770.34
2022-11-28T23:11:35.409Z,102778.06
2022-11-28T23:14:04.517Z,102778.25
2022-11-28T23:16:34.206Z,102777.00
2022-11-28T23:19:04.962Z,102778.81
2022-11-28T23:21:36.227Z,102771.91
2022-11-28T23:24:04.388Z,102772.94
2022-11-28T23:26:33.566Z,102709.16
2022-11-28T23:29:02.662Z,102772.00
2022-11-28T23:31:32.623Z,102776.34
2022-11-28T23:34:01.681Z,102772.81
2022-11-28T23:36:34.626Z,102779.63
2022-11-28T23:39:08.693Z,102754.63
2022-11-28T23:41:36.675Z,102778.06
2022-11-28T23:44:04.622Z,102738.41
2022-11-28T23:46:33.520Z,102771.16
2022-11-28T23:49:01.429Z,102777.00
2022-11-28T23:51:29.652Z,102734.84
2022-11-28T23:53:57.729Z,102770.16
2022-11-28T23:56:28.731Z,102775.28
2022-11-28T23:58:57.888Z,102776.06
